Time;durP1;ratioP1;P1;durP2;ratioP2;P2;SDS_P1;SDS_P2;PMS_P1;PMS_P2;Temp;Humidity;BMP_temperature;BMP_pressure;BME280_temperature;BME280_humidity;BME280_pressure;Samples;Min_cycle;Max_cycle;Signal;HPM_P1;HPM_P2
2023/01/23 00:02:03;;;;;;;19.47;12.53;;;;;;;0.37;100.00;99373.09;5051584;28;20580;-84
2023/01/23 00:04:30;;;;;;;17.23;11.77;;;;;;;0.41;100.00;99374.81;5051570;28;20208;-84
2023/01/23 00:06:56;;;;;;;18.07;11.97;;;;;;;0.43;100.00;99367.84;5051400;28;20208;-84
2023/01/23 00:09:22;;;;;;;17.13;11.67;;;;;;;0.42;100.00;99366.13;5050606;28;20287;-84
2023/01/23 00:11:50;;;;;;;18.03;11.93;;;;;;;0.43;100.00;99372.19;5051143;28;20235;-84
2023/01/23 00:14:17;;;;;;;16.43;10.80;;;;;;;0.36;100.00;99366.19;5051315;28;20227;-84
2023/01/23 00:16:43;;;;;;;18.30;11.53;;;;;;;0.37;100.00;99367.06;5051226;28;20215;-84
2023/01/23 00:19:10;;;;;;;16.40;11.03;;;;;;;0.35;100.00;99369.66;5050535;28;20223;-84
2023/01/23 00:21:37;;;;;;;16.53;11.33;;;;;;;0.35;100.00;99363.56;5051155;28;20225;-84
2023/01/23 00:24:04;;;;;;;16.83;10.77;;;;;;;0.32;100.00;99361.88;5051468;28;20211;-84
2023/01/23 00:26:32;;;;;;;15.87;10.57;;;;;;;0.28;100.00;99365.41;5051292;28;20211;-84
2023/01/23 00:29:00;;;;;;;17.93;11.03;;;;;;;0.23;100.00;99363.69;5050748;28;20211;-84
2023/01/23 00:31:31;;;;;;;14.67;10.07;;;;;;;0.19;100.00;99362.84;5051128;28;20600;-84
2023/01/23 00:33:59;;;;;;;17.33;11.07;;;;;;;0.27;100.00;99366.28;5051177;28;20331;-84
2023/01/23 00:36:29;;;;;;;15.70;10.53;;;;;;;0.17;100.00;99367.22;5051153;28;20682;-84
2023/01/23 00:38:56;;;;;;;16.80;10.23;;;;;;;0.12;100.00;99371.59;5050897;28;20225;-84
2023/01/23 00:41:22;;;;;;;16.53;10.40;;;;;;;0.13;100.00;99368.09;5050989;28;20244;-84
2023/01/23 00:43:50;;;;;;;18.30;11.33;;;;;;;0.07;100.00;99362.97;5051341;28;20587;-84
2023/01/23 00:46:18;;;;;;;16.07;10.37;;;;;;;0.08;100.00;99358.63;5051386;28;20240;-84
2023/01/23 00:48:45;;;;;;;15.80;10.50;;;;;;;0.03;100.00;99363.88;5050581;28;20213;-84
2023/01/23 00:51:12;;;;;;;17.77;11.93;;;;;;;0.01;100.00;99368.22;5050879;28;20272;-84
2023/01/23 00:53:38;;;;;;;17.93;11.97;;;;;;;0.04;100.00;99368.19;5051073;28;20228;-84
2023/01/23 00:56:06;;;;;;;17.57;11.53;;;;;;;-0.04;100.00;99364.78;5050875;28;20208;-84
2023/01/23 00:58:32;;;;;;;15.77;10.70;;;;;;;-0.01;100.00;99359.56;5050957;28;20214;-84
2023/01/23 01:00:59;;;;;;;15.70;10.80;;;;;;;-0.03;100.00;99363.94;5050370;28;20235;-84
2023/01/23 01:03:27;;;;;;;16.87;10.53;;;;;;;-0.07;100.00;99354.44;5050864;28;20204;-84
2023/01/23 01:05:53;;;;;;;17.97;11.53;;;;;;;-0.13;100.00;99358.78;5051106;28;20211;-84
2023/01/23 01:08:20;;;;;;;18.60;11.57;;;;;;;-0.15;100.00;99365.75;5051137;28;20215;-84
2023/01/23 01:10:46;;;;;;;18.93;12.03;;;;;;;-0.13;100.00;99362.28;5050427;28;20228;-84
2023/01/23 01:13:15;;;;;;;23.27;13.03;;;;;;;-0.10;100.00;99370.03;5050678;28;20227;-84
2023/01/23 01:15:42;;;;;;;21.43;13.17;;;;;;;-0.08;100.00;99367.41;5050816;28;20216;-84
2023/01/23 01:18:08;;;;;;;21.83;12.60;;;;;;;-0.05;100.00;99381.25;5050707;28;20212;-84
2023/01/23 01:20:36;;;;;;;18.30;11.47;;;;;;;0.06;100.00;99387.22;5050300;28;20237;-84
2023/01/23 01:23:03;;;;;;;21.03;12.13;;;;;;;0.12;100.00;99387.19;5050980;28;20204;-84
2023/01/23 01:25:30;;;;;;;19.40;11.53;;;;;;;0.16;100.00;99383.69;5050829;28;20231;-84
2023/01/23 01:27:56;;;;;;;19.17;11.50;;;;;;;0.18;100.00;99397.53;5050795;28;20672;-84
2023/01/23 01:30:24;;;;;;;18.50;11.77;;;;;;;0.18;100.00;99389.72;5053342;28;20231;-84
2023/01/23 01:32:51;;;;;;;17.97;11.63;;;;;;;0.21;100.00;99401.84;5054486;28;20583;-84
2023/01/23 01:35:17;;;;;;;16.87;11.27;;;;;;;0.28;100.00;99403.53;5054429;28;20208;-84
2023/01/23 01:37:45;;;;;;;15.87;10.37;;;;;;;0.24;100.00;99397.47;5054390;28;20278;-84
2023/01/23 01:40:14;;;;;;;15.50;10.87;;;;;;;0.23;100.00;99406.16;5052844;28;20243;-84
2023/01/23 01:42:43;;;;;;;18.13;12.07;;;;;;;0.35;100.00;99408.66;5052967;28;20215;-84
2023/01/23 01:45:54;;;;;;;17.30;10.87;;;;;;;0.39;100.00;99412.94;5052924;28;20219;-84
2023/01/23 01:48:24;;;;;;;17.87;11.13;;;;;;;0.46;100.00;99413.75;4971882;28;20215;-84
2023/01/23 01:50:51;;;;;;;17.83;12.50;;;;;;;0.39;100.00;99407.72;5034451;28;20228;-84
2023/01/23 01:53:21;;;;;;;20.27;12.27;;;;;;;0.40;100.00;99404.28;5052713;28;20243;-84
2023/01/23 01:55:48;;;;;;;18.03;11.27;;;;;;;0.41;100.00;99406.00;5052761;28;20207;-84
2023/01/23 01:58:15;;;;;;;18.97;11.10;;;;;;;0.39;100.00;99399.94;5052580;28;20212;-84
2023/01/23 02:00:41;;;;;;;18.20;11.57;;;;;;;0.37;100.00;99409.50;5050526;28;20244;-84
2023/01/23 02:03:08;;;;;;;17.43;11.30;;;;;;;0.36;100.00;99407.78;5049871;28;20208;-84
2023/01/23 02:05:37;;;;;;;19.03;11.73;;;;;;;0.37;100.00;99404.28;5051761;28;20208;-80
2023/01/23 02:08:12;;;;;;;17.20;11.13;;;;;;;0.42;100.00;99415.53;5052378;28;20208;-84
2023/01/23 02:10:40;;;;;;;15.97;10.77;;;;;;;0.50;100.00;99416.31;5052003;28;20233;-85
2023/01/23 02:13:29;;;;;;;20.13;11.23;;;;;;;0.43;100.00;99417.25;5052569;28;20570;-85
2023/01/23 02:15:56;;;;;;;15.93;11.10;;;;;;;0.49;100.00;99416.34;5052461;28;20354;-85
2023/01/23 02:18:23;;;;;;;16.53;11.40;;;;;;;0.56;100.00;99408.44;5052253;28;20214;-85
2023/01/23 02:20:52;;;;;;;16.80;10.73;;;;;;;0.47;100.00;99411.16;5052018;28;20254;-85
2023/01/23 02:23:29;;;;;;;17.30;10.70;;;;;;;0.48;100.00;99410.28;5052445;28;20790;-85
2023/01/23 02:25:59;;;;;;;17.10;10.33;;;;;;;0.42;100.00;99405.13;5052756;28;20196;-85
2023/01/23 02:28:38;;;;;;;17.50;11.00;;;;;;;0.42;100.00;99410.31;5052427;28;20231;-85
2023/01/23 02:31:04;;;;;;;17.70;11.40;;;;;;;0.45;100.00;99406.84;5051238;28;20294;-85
2023/01/23 02:33:47;;;;;;;16.43;10.80;;;;;;;0.43;100.00;99409.44;5052331;28;20235;-85
2023/01/23 02:36:14;;;;;;;17.70;11.60;;;;;;;0.43;100.00;99404.25;5052156;28;20670;-85
2023/01/23 02:38:49;;;;;;;15.40;9.90;;;;;;;0.40;100.00;99400.81;5052028;28;20219;-85
2023/01/23 02:41:20;;;;;;;16.83;11.13;;;;;;;0.45;100.00;99397.28;5014215;28;1056341;-85
2023/01/23 02:43:50;;;;;;;18.93;10.83;;;;;;;0.38;100.00;99400.81;5053248;28;20616;-85
2023/01/23 02:46:19;;;;;;;16.33;10.57;;;;;;;0.42;100.00;99402.53;5052808;28;20211;-85
2023/01/23 02:48:46;;;;;;;18.23;11.23;;;;;;;0.42;100.00;99410.31;5052517;28;20301;-85
2023/01/23 02:51:12;;;;;;;17.70;10.83;;;;;;;0.33;100.00;99407.78;5052104;28;20589;-85
2023/01/23 02:53:41;;;;;;;15.80;11.03;;;;;;;0.40;100.00;99408.59;5052596;28;20235;-85
2023/01/23 02:56:08;;;;;;;20.20;11.57;;;;;;;0.43;100.00;99403.41;5052894;28;20265;-85
2023/01/23 03:01:20;;;;;;;16.90;11.03;;;;;;;0.40;100.00;99404.28;5052516;28;20235;-85
2023/01/23 03:03:50;;;;;;;17.90;10.93;;;;;;;0.40;100.00;99403.41;5052860;28;20211;-85
2023/01/23 03:06:16;;;;;;;17.50;10.87;;;;;;;0.41;100.00;99411.22;5052505;28;20565;-85
2023/01/23 03:08:48;;;;;;;16.73;10.50;;;;;;;0.41;100.00;99421.59;5052209;28;20216;-80
2023/01/23 03:11:16;;;;;;;18.23;11.50;;;;;;;0.40;100.00;99414.69;5052294;28;20228;-86
2023/01/23 03:13:44;;;;;;;16.80;10.40;;;;;;;0.45;100.00;99417.25;5052574;28;20589;-85
2023/01/23 03:16:10;;;;;;;19.13;10.90;;;;;;;0.46;100.00;99406.84;5052419;28;20634;-85
2023/01/23 03:18:37;;;;;;;16.63;10.87;;;;;;;0.42;100.00;99407.72;5052320;28;20212;-85
2023/01/23 03:21:04;;;;;;;15.63;10.07;;;;;;;0.44;100.00;99411.16;5051351;28;20234;-85
2023/01/23 03:23:31;;;;;;;15.93;10.23;;;;;;;0.44;100.00;99410.31;5052456;28;20204;-85
2023/01/23 03:25:58;;;;;;;17.00;11.20;;;;;;;0.42;100.00;99412.94;5052307;28;20205;-85
2023/01/23 03:31:10;;;;;;;16.10;10.77;;;;;;;0.41;100.00;99411.22;5051406;28;20351;-85
2023/01/23 03:33:38;;;;;;;16.83;10.63;;;;;;;0.45;100.00;99412.03;5051764;28;20236;-85
2023/01/23 03:36:04;;;;;;;17.40;10.67;;;;;;;0.47;100.00;99411.16;5052063;28;20209;-86
2023/01/23 03:38:31;;;;;;;16.70;10.73;;;;;;;0.45;100.00;99405.06;5051928;28;20701;-85
2023/01/23 03:43:41;;;;;;;18.33;11.13;;;;;;;0.51;100.00;99397.22;5052117;28;20231;-86
2023/01/23 03:46:09;;;;;;;17.67;10.90;;;;;;;0.46;100.00;99400.75;5052008;28;20235;-85
2023/01/23 03:48:36;;;;;;;16.47;10.27;;;;;;;0.42;100.00;99389.53;5052266;28;20210;-86
2023/01/23 03:51:02;;;;;;;18.70;11.23;;;;;;;0.44;100.00;99394.72;5050734;28;20228;-86
2023/01/23 03:53:29;;;;;;;18.03;11.00;;;;;;;0.48;100.00;99406.78;5051874;28;20215;-86
2023/01/23 03:55:55;;;;;;;18.40;11.53;;;;;;;0.55;100.00;99405.88;5051886;28;20215;-86
2023/01/23 03:58:22;;;;;;;17.50;10.73;;;;;;;0.46;100.00;99398.16;5051645;28;20216;-86
2023/01/23 04:00:48;;;;;;;16.27;10.67;;;;;;;0.43;100.00;99411.19;5051018;28;20251;-86
2023/01/23 04:03:16;;;;;;;18.23;11.27;;;;;;;0.46;100.00;99404.22;5052038;28;20208;-85
2023/01/23 04:05:43;;;;;;;19.23;11.67;;;;;;;0.53;100.00;99399.81;5051557;28;20206;-85
2023/01/23 04:08:09;;;;;;;18.43;11.00;;;;;;;0.47;100.00;99408.56;5051695;28;20208;-85
2023/01/23 04:10:36;;;;;;;17.23;11.27;;;;;;;0.41;100.00;99406.00;5050790;28;20230;-86
2023/01/23 04:13:03;;;;;;;17.13;10.50;;;;;;;0.54;100.00;99406.75;5051737;28;20219;-85
2023/01/23 04:15:31;;;;;;;16.47;10.57;;;;;;;0.49;100.00;99408.53;5051831;28;20243;-85
2023/01/23 04:17:58;;;;;;;15.67;10.43;;;;;;;0.52;100.00;99419.78;5051828;28;20221;-85
2023/01/23 04:20:26;;;;;;;18.13;10.50;;;;;;;0.52;100.00;99418.91;5050946;28;20227;-85
2023/01/23 04:22:52;;;;;;;17.00;10.17;;;;;;;0.42;100.00;99425.94;5051461;28;20219;-85
2023/01/23 04:25:19;;;;;;;16.33;10.03;;;;;;;0.43;100.00;99424.19;5051433;28;20235;-86
2023/01/23 04:27:45;;;;;;;18.03;11.00;;;;;;;0.47;100.00;99425.88;5051274;28;20219;-86
2023/01/23 04:30:12;;;;;;;16.67;10.17;;;;;;;0.41;100.00;99437.22;5050856;28;20251;-85
2023/01/23 04:32:39;;;;;;;15.97;10.60;;;;;;;0.37;100.00;99438.09;5051715;28;20209;-85
2023/01/23 04:35:06;;;;;;;18.30;10.83;;;;;;;0.39;100.00;99448.50;5051317;28;20231;-86
2023/01/23 04:37:34;;;;;;;16.47;10.40;;;;;;;0.35;100.00;99442.47;5051393;28;20212;-86
2023/01/23 04:42:29;;;;;;;18.73;11.00;;;;;;;0.32;100.00;99447.66;5049435;28;20232;-77
2023/01/23 04:44:56;;;;;;;16.70;10.13;;;;;;;0.32;100.00;99442.47;5051043;28;20241;-77
2023/01/23 04:47:22;;;;;;;16.00;10.07;;;;;;;0.33;100.00;99448.56;5050854;28;20223;-78
2023/01/23 04:49:49;;;;;;;16.53;10.23;;;;;;;0.33;100.00;99444.19;5050084;28;20445;-78
2023/01/23 04:52:15;;;;;;;18.27;10.27;;;;;;;0.35;100.00;99447.66;5050716;28;20224;-77
2023/01/23 04:54:43;;;;;;;17.90;11.03;;;;;;;0.37;100.00;99458.06;5050703;28;20224;-76
2023/01/23 04:57:10;;;;;;;16.63;10.13;;;;;;;0.39;100.00;99449.34;5051106;28;20208;-77
2023/01/23 04:59:36;;;;;;;17.13;10.83;;;;;;;0.48;100.00;99457.09;5049980;28;20216;-77
2023/01/23 05:02:02;;;;;;;17.77;10.07;;;;;;;0.46;100.00;99448.44;5051027;28;20597;-78
2023/01/23 05:04:29;;;;;;;19.13;10.73;;;;;;;0.52;100.00;99455.31;5053458;28;20215;-78
2023/01/23 05:06:55;;;;;;;18.07;10.47;;;;;;;0.45;100.00;99444.09;5054567;28;20215;-78
2023/01/23 05:09:22;;;;;;;18.97;11.70;;;;;;;0.45;100.00;99454.50;5053630;28;20212;-78
2023/01/23 05:11:50;;;;;;;17.50;10.50;;;;;;;0.52;100.00;99450.13;5054486;28;20231;-77
2023/01/23 05:14:16;;;;;;;18.47;10.87;;;;;;;0.52;100.00;99445.78;5054461;28;20741;-77
2023/01/23 05:16:43;;;;;;;17.57;11.63;;;;;;;0.53;100.00;99447.50;5055269;28;20212;-78
2023/01/23 05:19:09;;;;;;;16.23;10.43;;;;;;;0.53;100.00;99457.03;5054704;28;20216;-77
2023/01/23 05:21:36;;;;;;;17.47;10.13;;;;;;;0.58;100.00;99445.75;5055656;28;20232;-76
2023/01/23 05:24:02;;;;;;;17.97;11.03;;;;;;;0.55;100.00;99450.09;5054497;28;20212;-78
2023/01/23 05:26:29;;;;;;;17.70;10.47;;;;;;;0.62;100.00;99447.41;5054205;28;20204;-78
2023/01/23 05:28:56;;;;;;;18.53;10.53;;;;;;;0.62;100.00;99457.81;5053402;28;20220;-78
2023/01/23 05:31:23;;;;;;;16.97;10.20;;;;;;;0.62;100.00;99462.19;5054121;28;20244;-77
2023/01/23 05:33:49;;;;;;;17.93;10.67;;;;;;;0.59;100.00;99452.66;5054207;28;20208;-77
2023/01/23 05:36:16;;;;;;;16.13;10.67;;;;;;;0.62;100.00;99457.81;5054106;28;20208;-78
2023/01/23 05:38:42;;;;;;;18.83;11.77;;;;;;;0.54;100.00;99448.34;5053866;28;20215;-77
2023/01/23 05:41:09;;;;;;;18.43;11.20;;;;;;;0.55;100.00;99450.94;5053533;28;20240;-77
2023/01/23 05:43:35;;;;;;;17.30;10.60;;;;;;;0.58;100.00;99450.94;5053820;28;20683;-78
2023/01/23 05:46:03;;;;;;;16.70;10.67;;;;;;;0.51;100.00;99448.41;5053968;28;20569;-78
2023/01/23 05:48:30;;;;;;;19.10;10.47;;;;;;;0.50;100.00;99457.94;5054088;28;20212;-78
2023/01/23 05:50:56;;;;;;;15.13;9.50;;;;;;;0.54;100.00;99461.38;5052829;28;20224;-78
2023/01/23 05:53:23;;;;;;;18.73;10.97;;;;;;;0.58;100.00;99450.94;5054000;28;20212;-78
2023/01/23 05:55:49;;;;;;;16.47;10.27;;;;;;;0.63;100.00;99446.53;5053707;28;20318;-78
2023/01/23 05:58:16;;;;;;;16.67;10.47;;;;;;;0.62;100.00;99452.63;5053687;28;20209;-78
2023/01/23 06:00:42;;;;;;;16.73;11.27;;;;;;;0.64;100.00;99461.28;5052598;28;20232;-78
2023/01/23 06:03:10;;;;;;;17.17;10.67;;;;;;;0.54;100.00;99458.75;5053525;28;20607;-78
2023/01/23 06:05:37;;;;;;;19.60;10.90;;;;;;;0.54;100.00;99464.84;5053394;28;20215;-78
2023/01/23 06:08:03;;;;;;;18.63;11.20;;;;;;;0.59;100.00;99468.28;5053474;28;20219;-78
2023/01/23 06:10:30;;;;;;;13.67;9.63;;;;;;;0.57;100.00;99464.78;5052789;28;20223;-77
2023/01/23 06:12:56;;;;;;;18.90;10.57;;;;;;;0.53;100.00;99468.31;5053546;28;20211;-77
2023/01/23 06:15:23;;;;;;;15.87;10.17;;;;;;;0.53;100.00;99467.44;5053022;28;20236;-77
2023/01/23 06:17:49;;;;;;;15.57;9.87;;;;;;;0.60;100.00;99470.00;5053374;28;20223;-77
2023/01/23 06:20:17;;;;;;;16.43;10.03;;;;;;;0.64;100.00;99471.69;5052569;28;20256;-77
2023/01/23 06:22:44;;;;;;;17.73;10.53;;;;;;;0.60;100.00;99474.31;5053530;28;20219;-78
2023/01/23 06:25:11;;;;;;;18.27;10.57;;;;;;;0.55;100.00;99471.75;5053172;28;20204;-77
2023/01/23 06:27:37;;;;;;;16.63;10.37;;;;;;;0.60;100.00;99477.78;5053269;28;20216;-78
2023/01/23 06:30:05;;;;;;;16.77;10.20;;;;;;;0.56;100.00;99481.28;5052323;28;20231;-78
2023/01/23 06:32:31;;;;;;;20.83;10.93;;;;;;;0.56;100.00;99478.69;5052811;28;20215;-78
2023/01/23 06:34:57;;;;;;;18.07;11.03;;;;;;;0.55;100.00;99487.38;5053040;28;20591;-78
2023/01/23 06:37:25;;;;;;;18.53;11.47;;;;;;;0.59;100.00;99494.28;5053144;28;20223;-77
2023/01/23 06:39:52;;;;;;;19.67;11.17;;;;;;;0.58;100.00;99499.50;5051941;28;20701;-77
2023/01/23 06:42:18;;;;;;;18.13;10.53;;;;;;;0.52;100.00;99500.41;5052447;28;20266;-77
2023/01/23 06:44:45;;;;;;;15.70;10.47;;;;;;;0.50;100.00;99504.75;5052839;28;20206;-78
2023/01/23 06:47:11;;;;;;;17.23;10.17;;;;;;;0.54;100.00;99514.25;5052629;28;20248;-77
2023/01/23 06:49:39;;;;;;;20.97;12.30;;;;;;;0.60;100.00;99516.81;5052206;28;20235;-79
2023/01/23 06:52:05;;;;;;;17.83;10.47;;;;;;;0.57;100.00;99516.81;5052860;28;20224;-78
2023/01/23 06:54:34;;;;;;;19.80;11.70;;;;;;;0.57;100.00;99523.78;5052668;28;20215;-78
2023/01/23 06:57:01;;;;;;;17.20;10.13;;;;;;;0.55;100.00;99523.78;5052655;28;20590;-78
2023/01/23 06:59:27;;;;;;;19.03;10.90;;;;;;;0.56;100.00;99530.72;5051774;28;20208;-78
2023/01/23 07:01:54;;;;;;;18.50;10.50;;;;;;;0.51;100.00;99534.22;5052256;28;20232;-78
2023/01/23 07:04:20;;;;;;;18.40;9.90;;;;;;;0.53;100.00;99530.75;5052372;28;20212;-78
2023/01/23 07:06:47;;;;;;;18.17;11.37;;;;;;;0.53;100.00;99535.94;5052442;28;20204;-78
2023/01/23 07:09:13;;;;;;;20.13;11.30;;;;;;;0.55;100.00;99533.34;5051692;28;20215;-79
2023/01/23 07:11:41;;;;;;;17.30;9.97;;;;;;;0.54;100.00;99540.28;5052228;28;20224;-78
2023/01/23 07:14:08;;;;;;;19.53;10.90;;;;;;;0.57;100.00;99548.03;5052260;28;20231;-78
2023/01/23 07:16:35;;;;;;;17.27;10.03;;;;;;;0.49;100.00;99539.44;5052261;28;20239;-77
2023/01/23 07:19:02;;;;;;;19.60;11.27;;;;;;;0.54;100.00;99545.47;5051250;28;20699;-77
2023/01/23 07:21:29;;;;;;;18.60;10.73;;;;;;;0.51;100.00;99549.84;5052194;28;20579;-77
2023/01/23 07:23:55;;;;;;;19.53;11.73;;;;;;;0.51;100.00;99558.47;5052272;28;20204;-76
2023/01/23 07:26:22;;;;;;;19.40;11.07;;;;;;;0.50;100.00;99554.16;5051478;28;20227;-78
2023/01/23 07:28:50;;;;;;;19.43;11.60;;;;;;;0.58;100.00;99554.13;5051353;28;20688;-78
2023/01/23 07:31:16;;;;;;;17.60;10.60;;;;;;;0.56;100.00;99558.47;5051566;28;20232;-77
2023/01/23 07:33:43;;;;;;;18.70;11.37;;;;;;;0.56;100.00;99561.91;5051747;28;20218;-77
2023/01/23 07:36:12;;;;;;;21.57;12.23;;;;;;;0.56;100.00;99566.28;5051654;28;20231;-78
2023/01/23 07:38:39;;;;;;;20.33;11.50;;;;;;;0.54;100.00;99563.69;5051744;28;20239;-78
2023/01/23 07:41:05;;;;;;;20.20;11.27;;;;;;;0.54;100.00;99561.09;5050985;28;20251;-78
2023/01/23 07:43:32;;;;;;;20.30;12.03;;;;;;;0.57;100.00;99563.66;5051565;28;20704;-78
2023/01/23 07:46:00;;;;;;;20.33;12.03;;;;;;;0.54;100.00;99566.28;5051597;28;20230;-78
2023/01/23 07:48:28;;;;;;;18.87;10.77;;;;;;;0.53;100.00;99563.69;5051728;28;20631;-78
2023/01/23 07:50:54;;;;;;;20.60;11.97;;;;;;;0.58;100.00;99557.59;5050379;28;20228;-77
2023/01/23 07:53:21;;;;;;;19.70;11.80;;;;;;;0.66;100.00;99555.78;5051401;28;20323;-78
2023/01/23 07:55:47;;;;;;;18.67;10.77;;;;;;;0.70;100.00;99554.91;5051239;28;20228;-77
2023/01/23 07:58:14;;;;;;;20.30;11.20;;;;;;;0.68;100.00;99561.84;5051538;28;20220;-78
2023/01/23 08:00:41;;;;;;;21.50;12.47;;;;;;;0.75;100.00;99555.69;5050595;28;20228;-78
2023/01/23 08:03:09;;;;;;;19.93;11.67;;;;;;;0.75;100.00;99553.09;5051304;28;20237;-77
2023/01/23 08:05:35;;;;;;;22.73;12.30;;;;;;;0.74;100.00;99567.00;5051313;28;20216;-78
2023/01/23 08:08:02;;;;;;;23.93;11.43;;;;;;;0.72;100.00;99553.13;5051338;28;20223;-77
2023/01/23 08:10:28;;;;;;;20.73;10.87;;;;;;;0.69;100.00;99560.13;5050417;28;20228;-78
2023/01/23 08:12:55;;;;;;;20.07;11.77;;;;;;;0.79;100.00;99565.22;5051544;28;20234;-78
2023/01/23 08:15:21;;;;;;;23.47;12.57;;;;;;;0.84;100.00;99555.66;5051402;28;20318;-78
2023/01/23 08:17:48;;;;;;;19.60;12.03;;;;;;;0.78;100.00;99554.81;5051307;28;20306;-78
2023/01/23 08:20:16;;;;;;;24.23;12.90;;;;;;;0.89;100.00;99561.69;5050460;28;20236;-78
2023/01/23 08:22:42;;;;;;;20.40;11.87;;;;;;;0.92;100.00;99540.81;5051141;28;20208;-77
2023/01/23 08:25:10;;;;;;;19.00;11.93;;;;;;;0.96;100.00;99552.06;5051205;28;20217;-75
2023/01/23 08:27:37;;;;;;;20.83;11.83;;;;;;;0.95;100.00;99553.81;5051444;28;20212;-77
2023/01/23 08:30:05;;;;;;;20.63;11.90;;;;;;;1.00;100.00;99552.00;5050576;28;20593;-77
2023/01/23 08:32:31;;;;;;;20.90;12.47;;;;;;;1.02;100.00;99549.41;5051342;28;20212;-77
2023/01/23 08:34:58;;;;;;;20.50;11.63;;;;;;;0.93;100.00;99552.94;5051234;28;20212;-76
2023/01/23 08:37:26;;;;;;;19.57;11.77;;;;;;;0.95;100.00;99558.16;5052175;28;20247;-77
2023/01/23 08:39:52;;;;;;;23.60;12.00;;;;;;;0.93;100.00;99547.75;5054691;28;20211;-77
2023/01/23 08:42:19;;;;;;;20.67;12.17;;;;;;;0.97;100.00;99544.25;5054973;28;20216;-77
2023/01/23 08:44:45;;;;;;;18.23;10.07;;;;;;;0.98;100.00;99545.13;5055101;28;20207;-78
2023/01/23 08:47:12;;;;;;;20.03;10.77;;;;;;;0.92;100.00;99545.19;5055076;28;20222;-78
2023/01/23 08:49:38;;;;;;;19.63;11.23;;;;;;;0.99;100.00;99544.25;5054515;28;20217;-78
2023/01/23 08:52:05;;;;;;;17.00;10.07;;;;;;;1.03;100.00;99544.19;5055118;28;20602;-78
2023/01/23 08:54:32;;;;;;;16.70;10.60;;;;;;;1.04;100.00;99530.28;5055273;28;20212;-78
2023/01/23 08:56:59;;;;;;;16.00;9.53;;;;;;;1.06;100.00;99532.88;5054989;28;20224;-78
2023/01/23 08:59:26;;;;;;;15.13;9.23;;;;;;;1.01;100.00;99532.94;5054205;28;20208;-78
2023/01/23 09:01:53;;;;;;;15.93;9.13;;;;;;;1.02;100.00;99533.78;5055070;28;20239;-77
2023/01/23 09:04:19;;;;;;;13.53;8.00;;;;;;;1.05;100.00;99529.41;5054780;28;20208;-78
2023/01/23 09:06:45;;;;;;;12.80;8.27;;;;;;;1.04;100.00;99530.28;5054759;28;20201;-78
2023/01/23 09:09:12;;;;;;;14.27;8.80;;;;;;;1.04;100.00;99525.09;5053841;28;20214;-77
2023/01/23 09:11:40;;;;;;;14.23;8.87;;;;;;;1.05;100.00;99532.03;5054620;28;20231;-78
2023/01/23 09:14:06;;;;;;;13.20;8.63;;;;;;;1.10;100.00;99539.81;5054758;28;20205;-76
2023/01/23 09:16:33;;;;;;;13.83;8.47;;;;;;;1.25;100.00;99542.25;5054391;28;20235;-76
2023/01/23 09:18:59;;;;;;;12.50;7.67;;;;;;;1.31;100.00;99522.22;5053764;28;20204;-77
2023/01/23 09:21:26;;;;;;;13.00;8.40;;;;;;;1.39;100.00;99517.78;5054316;28;20238;-78
2023/01/23 09:23:52;;;;;;;12.37;8.23;;;;;;;1.38;100.00;99513.47;5052879;28;20216;-77
2023/01/23 09:26:19;;;;;;;15.40;8.70;;;;;;;1.36;100.00;99517.81;5050963;28;20683;-77
2023/01/23 09:28:47;;;;;;;13.83;8.43;;;;;;;1.38;100.00;99525.63;5052731;28;20212;-76
2023/01/23 09:31:14;;;;;;;12.70;8.47;;;;;;;1.39;100.00;99536.03;5053126;28;20224;-78
2023/01/23 09:33:41;;;;;;;13.37;8.50;;;;;;;1.37;100.00;99524.78;5045940;28;20212;-78
2023/01/23 09:36:09;;;;;;;14.20;9.23;;;;;;;1.39;100.00;99523.00;5036096;28;20638;-78
2023/01/23 09:38:35;;;;;;;14.23;9.10;;;;;;;1.34;100.00;99537.81;5033558;28;20351;-77
2023/01/23 09:41:09;;;;;;;14.40;8.53;;;;;;;1.33;100.00;99520.47;5031735;28;20232;-76
2023/01/23 09:43:42;;;;;;;12.43;7.80;;;;;;;1.30;100.00;99520.47;5033199;28;20721;-76
2023/01/23 09:46:19;;;;;;;11.50;8.07;;;;;;;1.22;100.00;99530.13;5033181;28;20686;-76
2023/01/23 09:48:47;;;;;;;12.53;8.20;;;;;;;1.23;100.00;99538.81;5031648;28;20213;-78
2023/01/23 09:51:22;;;;;;;12.27;8.03;;;;;;;1.20;100.00;99537.09;5032806;28;20232;-77
2023/01/23 09:53:49;;;;;;;11.70;7.23;;;;;;;1.14;100.00;99524.13;5033115;28;20216;-76
2023/01/23 09:56:28;;;;;;;13.03;7.97;;;;;;;1.18;100.00;99533.63;5032195;28;20236;-76
2023/01/23 09:59:14;;;;;;;13.07;7.50;;;;;;;1.15;100.00;99525.84;5032057;28;20215;-76
2023/01/23 10:01:42;;;;;;;12.13;7.77;;;;;;;1.16;100.00;99540.59;5032299;28;20627;-78
2023/01/23 10:04:11;;;;;;;11.90;8.10;;;;;;;1.16;100.00;99532.78;5033036;28;20494;-78
2023/01/23 10:06:55;;;;;;;11.40;7.07;;;;;;;1.17;100.00;99539.72;5033094;28;20204;-76
2023/01/23 10:09:32;;;;;;;12.00;7.63;;;;;;;1.23;100.00;99542.25;5031169;28;20219;-77
2023/01/23 10:12:06;;;;;;;13.80;8.57;;;;;;;1.24;100.00;99543.97;5032932;28;20232;-77
2023/01/23 10:14:51;;;;;;;13.57;7.97;;;;;;;1.32;100.00;99544.78;5032670;28;20212;-78
2023/01/23 10:17:27;;;;;;;11.70;7.70;;;;;;;1.41;100.00;99531.66;5031968;28;20232;-78
2023/01/23 10:20:09;;;;;;;12.97;7.93;;;;;;;1.47;100.00;99536.78;5031862;28;20232;-78
2023/01/23 10:22:41;;;;;;;14.20;8.40;;;;;;;1.43;99.73;99542.94;5032833;28;20213;-77
2023/01/23 10:25:16;;;;;;;13.17;8.30;;;;;;;1.41;100.00;99542.06;5032127;28;20217;-77
2023/01/23 10:27:46;;;;;;;14.00;8.23;;;;;;;1.38;100.00;99536.91;5032712;28;20208;-77
2023/01/23 10:30:24;;;;;;;12.50;8.17;;;;;;;1.39;99.71;99528.22;5032125;28;20215;-77
2023/01/23 10:32:57;;;;;;;11.73;7.70;;;;;;;1.40;99.66;99523.84;5031622;28;20239;-78
2023/01/23 10:35:32;;;;;;;13.63;8.53;;;;;;;1.46;99.41;99535.06;5041750;28;20227;-77
2023/01/23 10:38:03;;;;;;;12.17;7.93;;;;;;;1.55;99.80;99539.31;5052669;28;20210;-77
2023/01/23 10:43:16;;;;;;;14.50;8.97;;;;;;;1.51;100.00;99533.28;5030475;28;20227;-78
2023/01/23 10:45:44;;;;;;;14.03;8.97;;;;;;;1.52;100.00;99528.91;5032071;28;20210;-79
2023/01/23 10:48:44;;;;;;;12.67;8.37;;;;;;;1.47;99.97;99533.34;5031043;28;20581;-83
2023/01/23 10:51:45;;;;;;;13.10;8.57;;;;;;;1.55;100.00;99529.78;5030130;28;20237;-80
2023/01/23 10:54:17;;;;;;;15.13;9.43;;;;;;;1.59;100.00;99526.22;5030990;28;20214;-85
2023/01/23 10:56:57;;;;;;;15.10;8.90;;;;;;;1.63;100.00;99534.88;5031697;28;20761;-79
2023/01/23 10:59:32;;;;;;;13.97;8.90;;;;;;;1.69;99.62;99527.84;5030819;28;20263;-87
2023/01/23 11:02:06;;;;;;;15.50;9.60;;;;;;;1.62;100.00;99526.22;5029825;28;20243;-83
2023/01/23 11:04:36;;;;;;;13.60;7.87;;;;;;;1.62;100.00;99531.44;5030971;28;20206;-84
2023/01/23 11:07:07;;;;;;;14.43;8.80;;;;;;;1.64;99.62;99529.66;5031581;28;20205;-84
2023/01/23 11:09:46;;;;;;;15.30;8.53;;;;;;;1.63;99.06;99509.69;5030076;28;20204;-80
2023/01/23 11:12:16;;;;;;;15.83;9.60;;;;;;;1.64;98.73;99507.94;5031739;28;20233;-84
2023/01/23 11:14:43;;;;;;;13.63;8.33;;;;;;;1.64;98.54;99514.00;5031447;28;20216;-83
2023/01/23 11:17:20;;;;;;;13.40;8.43;;;;;;;1.69;97.36;99499.19;5030704;28;20226;-82
2023/01/23 11:19:50;;;;;;;12.53;8.17;;;;;;;1.69;97.75;99491.38;5030645;28;20237;-84
2023/01/23 11:22:28;;;;;;;13.63;8.90;;;;;;;1.81;97.24;99483.41;5095740;27;20571;-83
2023/01/23 11:24:55;;;;;;;16.07;9.10;;;;;;;1.85;97.00;99482.44;5084617;28;20219;-81
2023/01/23 11:27:25;;;;;;;14.47;8.87;;;;;;;1.89;96.91;99481.53;5088827;28;20217;-81
2023/01/23 11:30:24;;;;;;;14.90;9.50;;;;;;;1.95;95.72;99463.22;5087872;28;20215;-79
2023/01/23 11:32:57;;;;;;;13.70;9.00;;;;;;;1.98;94.40;99451.88;5088404;28;20290;-80
2023/01/23 11:35:29;;;;;;;14.53;9.13;;;;;;;1.97;95.18;99469.25;5088698;28;20218;-82
2023/01/23 11:37:58;;;;;;;15.17;9.30;;;;;;;1.99;95.81;99470.13;5088735;28;20401;-84
2023/01/23 11:40:25;;;;;;;14.13;8.63;;;;;;;1.99;95.30;99459.69;5087407;28;20254;-83